ADDS TAF Board (Experimental) INFO Settings

IDs: Format: Expanded Condensed

KFLL - Ft Lauderdale-Hollyw, FL, US

Issued at 1720 UTC 26 Apr 2015
Updated at: 2058 UTC 26 Apr 2015
Time2053Z 26/21Z 26/22Z 26/23Z 27/00Z 27/01Z 27/02Z 27/03Z 27/04Z 27/05Z 27/06Z 27/07Z 27/08Z 27/09Z
Type OBS PRVL PRVL PRVL PRVL PRVL PRVL PRVL PRVL PRVL PRVL PRVL PRVL PRVL
VIS 10 >6 >6 >6 >6 >6 >6 >6 >6 >6 >6 >6 >6 >6
CIG -- -- -- -- -- -- -- -- -- -- -- -- -- --
Cover FEW SCT SCT SCT SCT SCT SCT SCT SCT SCT SCT SCT SCT SCT
FltCat VFR VFR VFR VFR VFR VFR VFR VFR VFR VFR VFR VFR VFR VFR
WX -- -- -- -- -- -- -- -- -- -- -- -- -- --
WDir 250 260 260 260 240 240 240 240 240 240 240 240 240 240
WSpd 13 15 15 15 7 7 7 7 7 7 7 7 7 7
WGst 22 25 25 25 -- -- -- -- -- -- -- -- -- --
R10/28
XWnd -4 -3 -3 -3 -3 -3 -3 -3 -3 -3 -3 -3 -3 -3
XGst -8 -4 -4 -4 -- -- -- -- -- -- -- -- -- --
HWnd -12 -15 -15 -15 -6 -6 -6 -6 -6 -6 -6 -6 -6 -6
HGst -21 -25 -25 -25 -- -- -- -- -- -- -- -- -- --

NOTE: TEMPO conditions in [brackets]. Keep in mind TEMPO conditions might be better (lower impact) than prevailing conditions.

Raw TAF
KFLL 261720Z 2618/2718 26015G25KT P6SM SCT040
  FM270000 24007KT P6SM SCT250
  FM271300 28009KT P6SM FEW030 BKN200


Raw METAR
KFLL 262053Z 25013G22KT 10SM FEW055 34/22 A2974 RMK AO2 SLP072 T03440217 58013
KFLL 261953Z 27014G20KT 10SM FEW055 35/22 A2976 RMK AO2 PK WND 24028/1918 SLP077 T03500217
KFLL 261853Z 24017G23KT 10SM FEW049 35/22 A2977 RMK AO2 SLP080 T03500217
KFLL 261753Z 25018G24KT 10SM FEW050 35/22 A2978 RMK AO2 SLP084 T03500217 10350 20256 58014

METAR Board
Radar Display
Forecast Discussion

TAF Board Legend

Potential Impact
Threat None Slight Moderate High
Visibility (sm) ≥5.1 5.1>X≥3 3>X≥1 <1
Ceiling (100 ft) ≥30.1 30.1>X≥10 10>X≥5 <5
Wind Speed (kt) <10 10≤X<20 20≤X<30 ≥30
Wind Gust (kt) <15 15≤X<25 25≤X<35 ≥35
Weather No Wx Reported VCTS,-TS,-FZRA,SN TS,FZRA +TS,+FZRA,+SN